sensor_id;sensor_type;location;lat;lon;timestamp;P1;durP1;ratioP1;P2;durP2;ratioP2
76228;SDS011;65021;53.174;18.160;2024-03-08T00:02:14;17.20;;;7.40;;
76228;SDS011;65021;53.174;18.160;2024-03-08T00:04:41;23.80;;;8.80;;
76228;SDS011;65021;53.174;18.160;2024-03-08T00:07:08;19.20;;;7.20;;
76228;SDS011;65021;53.174;18.160;2024-03-08T00:09:35;13.50;;;5.30;;
76228;SDS011;65021;53.174;18.160;2024-03-08T00:12:03;19.40;;;8.10;;
76228;SDS011;65021;53.174;18.160;2024-03-08T00:14:29;19.90;;;8.40;;
76228;SDS011;65021;53.174;18.160;2024-03-08T00:16:56;19.20;;;8.10;;
76228;SDS011;65021;53.174;18.160;2024-03-08T00:19:23;14.20;;;6.70;;
76228;SDS011;65021;53.174;18.160;2024-03-08T00:21:49;20.30;;;8.60;;
76228;SDS011;65021;53.174;18.160;2024-03-08T00:24:16;20.80;;;8.60;;
76228;SDS011;65021;53.174;18.160;2024-03-08T00:26:43;21.10;;;8.10;;
76228;SDS011;65021;53.174;18.160;2024-03-08T00:29:10;19.50;;;8.00;;
76228;SDS011;65021;53.174;18.160;2024-03-08T00:31:37;19.30;;;6.60;;
76228;SDS011;65021;53.174;18.160;2024-03-08T00:34:03;17.90;;;7.70;;
76228;SDS011;65021;53.174;18.160;2024-03-08T00:36:30;12.90;;;5.40;;
76228;SDS011;65021;53.174;18.160;2024-03-08T00:38:57;19.90;;;6.80;;
76228;SDS011;65021;53.174;18.160;2024-03-08T00:41:24;14.80;;;6.80;;
76228;SDS011;65021;53.174;18.160;2024-03-08T00:43:52;16.30;;;7.40;;
76228;SDS011;65021;53.174;18.160;2024-03-08T00:46:19;16.90;;;7.80;;
76228;SDS011;65021;53.174;18.160;2024-03-08T00:48:45;19.60;;;9.20;;
76228;SDS011;65021;53.174;18.160;2024-03-08T00:51:13;20.60;;;6.90;;
76228;SDS011;65021;53.174;18.160;2024-03-08T00:53:41;15.80;;;6.90;;
76228;SDS011;65021;53.174;18.160;2024-03-08T00:56:09;20.10;;;7.90;;
76228;SDS011;65021;53.174;18.160;2024-03-08T00:58:38;19.20;;;7.30;;
76228;SDS011;65021;53.174;18.160;2024-03-08T01:01:06;16.20;;;7.20;;
76228;SDS011;65021;53.174;18.160;2024-03-08T01:03:33;17.80;;;8.10;;
76228;SDS011;65021;53.174;18.160;2024-03-08T01:06:00;20.60;;;7.40;;
76228;SDS011;65021;53.174;18.160;2024-03-08T01:08:27;20.40;;;7.50;;
76228;SDS011;65021;53.174;18.160;2024-03-08T01:10:54;17.50;;;7.70;;
76228;SDS011;65021;53.174;18.160;2024-03-08T01:13:20;17.50;;;8.10;;
76228;SDS011;65021;53.174;18.160;2024-03-08T01:15:47;19.10;;;7.50;;
76228;SDS011;65021;53.174;18.160;2024-03-08T01:18:14;18.50;;;7.00;;
76228;SDS011;65021;53.174;18.160;2024-03-08T01:20:41;18.10;;;8.00;;
76228;SDS011;65021;53.174;18.160;2024-03-08T01:23:07;19.40;;;7.50;;
76228;SDS011;65021;53.174;18.160;2024-03-08T01:25:34;15.00;;;7.10;;
76228;SDS011;65021;53.174;18.160;2024-03-08T01:28:00;19.60;;;7.80;;
76228;SDS011;65021;53.174;18.160;2024-03-08T01:30:28;24.80;;;10.50;;
76228;SDS011;65021;53.174;18.160;2024-03-08T01:32:55;18.70;;;7.00;;
76228;SDS011;65021;53.174;18.160;2024-03-08T01:35:22;18.90;;;8.20;;
76228;SDS011;65021;53.174;18.160;2024-03-08T01:37:48;24.50;;;9.00;;
76228;SDS011;65021;53.174;18.160;2024-03-08T01:40:16;24.00;;;10.30;;
76228;SDS011;65021;53.174;18.160;2024-03-08T01:42:43;20.20;;;7.50;;
76228;SDS011;65021;53.174;18.160;2024-03-08T01:45:11;26.50;;;9.90;;
76228;SDS011;65021;53.174;18.160;2024-03-08T01:47:37;19.60;;;7.00;;
76228;SDS011;65021;53.174;18.160;2024-03-08T01:50:04;20.20;;;8.10;;
76228;SDS011;65021;53.174;18.160;2024-03-08T01:52:33;19.80;;;9.20;;
76228;SDS011;65021;53.174;18.160;2024-03-08T01:55:02;18.30;;;8.00;;
76228;SDS011;65021;53.174;18.160;2024-03-08T01:57:35;17.90;;;7.10;;
76228;SDS011;65021;53.174;18.160;2024-03-08T02:00:04;25.10;;;10.30;;
76228;SDS011;65021;53.174;18.160;2024-03-08T02:02:32;23.70;;;9.60;;
76228;SDS011;65021;53.174;18.160;2024-03-08T02:05:01;12.20;;;5.80;;
76228;SDS011;65021;53.174;18.160;2024-03-08T02:07:27;19.80;;;7.50;;
76228;SDS011;65021;53.174;18.160;2024-03-08T02:09:54;19.90;;;9.60;;
76228;SDS011;65021;53.174;18.160;2024-03-08T02:12:20;22.90;;;8.90;;
76228;SDS011;65021;53.174;18.160;2024-03-08T02:14:47;17.90;;;7.80;;
76228;SDS011;65021;53.174;18.160;2024-03-08T02:17:14;24.40;;;10.30;;
76228;SDS011;65021;53.174;18.160;2024-03-08T02:19:40;17.40;;;8.00;;
76228;SDS011;65021;53.174;18.160;2024-03-08T02:22:07;25.40;;;10.60;;
76228;SDS011;65021;53.174;18.160;2024-03-08T02:24:35;23.70;;;10.10;;
76228;SDS011;65021;53.174;18.160;2024-03-08T02:27:02;21.70;;;10.50;;
76228;SDS011;65021;53.174;18.160;2024-03-08T02:29:28;26.40;;;11.90;;
76228;SDS011;65021;53.174;18.160;2024-03-08T02:31:57;24.70;;;11.70;;
76228;SDS011;65021;53.174;18.160;2024-03-08T02:34:24;29.10;;;11.80;;
76228;SDS011;65021;53.174;18.160;2024-03-08T02:36:51;21.00;;;8.40;;
76228;SDS011;65021;53.174;18.160;2024-03-08T02:39:18;23.50;;;9.10;;
76228;SDS011;65021;53.174;18.160;2024-03-08T02:41:46;27.20;;;10.90;;
76228;SDS011;65021;53.174;18.160;2024-03-08T02:44:12;19.50;;;8.40;;
76228;SDS011;65021;53.174;18.160;2024-03-08T02:46:39;18.80;;;7.40;;
76228;SDS011;65021;53.174;18.160;2024-03-08T02:49:06;25.40;;;11.00;;
76228;SDS011;65021;53.174;18.160;2024-03-08T02:51:34;18.30;;;7.70;;
76228;SDS011;65021;53.174;18.160;2024-03-08T02:54:01;26.70;;;11.80;;
76228;SDS011;65021;53.174;18.160;2024-03-08T02:56:30;19.10;;;8.70;;
76228;SDS011;65021;53.174;18.160;2024-03-08T02:58:56;20.50;;;8.80;;
76228;SDS011;65021;53.174;18.160;2024-03-08T03:01:23;18.50;;;7.40;;
76228;SDS011;65021;53.174;18.160;2024-03-08T03:03:49;17.50;;;7.70;;
76228;SDS011;65021;53.174;18.160;2024-03-08T03:06:16;28.50;;;12.20;;
76228;SDS011;65021;53.174;18.160;2024-03-08T03:08:46;20.60;;;8.80;;
76228;SDS011;65021;53.174;18.160;2024-03-08T03:11:13;22.40;;;10.40;;
76228;SDS011;65021;53.174;18.160;2024-03-08T03:13:39;21.90;;;9.30;;
76228;SDS011;65021;53.174;18.160;2024-03-08T03:16:08;15.00;;;6.60;;
76228;SDS011;65021;53.174;18.160;2024-03-08T03:18:36;21.50;;;9.60;;
76228;SDS011;65021;53.174;18.160;2024-03-08T03:21:03;24.30;;;10.40;;
76228;SDS011;65021;53.174;18.160;2024-03-08T03:23:33;19.70;;;8.90;;
76228;SDS011;65021;53.174;18.160;2024-03-08T03:26:01;25.20;;;9.70;;
76228;SDS011;65021;53.174;18.160;2024-03-08T03:28:28;18.30;;;7.50;;
76228;SDS011;65021;53.174;18.160;2024-03-08T03:30:55;33.90;;;13.30;;
76228;SDS011;65021;53.174;18.160;2024-03-08T03:33:25;22.60;;;9.00;;
76228;SDS011;65021;53.174;18.160;2024-03-08T03:35:52;25.00;;;10.30;;
76228;SDS011;65021;53.174;18.160;2024-03-08T03:38:18;20.60;;;8.10;;
76228;SDS011;65021;53.174;18.160;2024-03-08T03:40:49;24.20;;;10.30;;
76228;SDS011;65021;53.174;18.160;2024-03-08T03:43:18;25.00;;;10.70;;
76228;SDS011;65021;53.174;18.160;2024-03-08T03:45:45;25.20;;;10.90;;
76228;SDS011;65021;53.174;18.160;2024-03-08T03:48:11;35.00;;;14.20;;
76228;SDS011;65021;53.174;18.160;2024-03-08T03:50:38;25.10;;;11.00;;
76228;SDS011;65021;53.174;18.160;2024-03-08T03:53:05;31.80;;;13.20;;
76228;SDS011;65021;53.174;18.160;2024-03-08T03:55:35;28.20;;;9.90;;
76228;SDS011;65021;53.174;18.160;2024-03-08T03:58:05;40.90;;;15.70;;
76228;SDS011;65021;53.174;18.160;2024-03-08T04:00:32;41.50;;;15.50;;
76228;SDS011;65021;53.174;18.160;2024-03-08T04:02:59;41.80;;;14.30;;
76228;SDS011;65021;53.174;18.160;2024-03-08T04:05:27;43.00;;;17.10;;
76228;SDS011;65021;53.174;18.160;2024-03-08T04:07:54;37.60;;;13.40;;
76228;SDS011;65021;53.174;18.160;2024-03-08T04:10:20;32.10;;;11.40;;
76228;SDS011;65021;53.174;18.160;2024-03-08T04:12:47;46.40;;;19.00;;
76228;SDS011;65021;53.174;18.160;2024-03-08T04:15:14;41.80;;;16.30;;
76228;SDS011;65021;53.174;18.160;2024-03-08T04:17:41;44.90;;;17.20;;
76228;SDS011;65021;53.174;18.160;2024-03-08T04:20:08;38.20;;;14.90;;
76228;SDS011;65021;53.174;18.160;2024-03-08T04:22:36;40.40;;;17.20;;
76228;SDS011;65021;53.174;18.160;2024-03-08T04:25:03;45.30;;;17.90;;
76228;SDS011;65021;53.174;18.160;2024-03-08T04:27:30;47.00;;;18.90;;
76228;SDS011;65021;53.174;18.160;2024-03-08T04:29:59;30.60;;;13.00;;
76228;SDS011;65021;53.174;18.160;2024-03-08T04:32:26;50.90;;;18.30;;
76228;SDS011;65021;53.174;18.160;2024-03-08T04:34:54;45.40;;;17.80;;
76228;SDS011;65021;53.174;18.160;2024-03-08T04:37:21;49.20;;;19.30;;
76228;SDS011;65021;53.174;18.160;2024-03-08T04:39:48;52.60;;;19.30;;
76228;SDS011;65021;53.174;18.160;2024-03-08T04:42:14;44.00;;;17.70;;
76228;SDS011;65021;53.174;18.160;2024-03-08T04:44:44;46.80;;;16.00;;
76228;SDS011;65021;53.174;18.160;2024-03-08T04:47:11;39.80;;;15.80;;
76228;SDS011;65021;53.174;18.160;2024-03-08T04:49:38;49.50;;;19.40;;
76228;SDS011;65021;53.174;18.160;2024-03-08T04:52:04;42.10;;;15.10;;
76228;SDS011;65021;53.174;18.160;2024-03-08T04:54:33;47.40;;;19.50;;
76228;SDS011;65021;53.174;18.160;2024-03-08T04:57:00;33.30;;;13.50;;
76228;SDS011;65021;53.174;18.160;2024-03-08T04:59:27;36.20;;;12.60;;
76228;SDS011;65021;53.174;18.160;2024-03-08T05:01:54;43.80;;;17.60;;
76228;SDS011;65021;53.174;18.160;2024-03-08T05:04:21;45.00;;;18.90;;
76228;SDS011;65021;53.174;18.160;2024-03-08T05:06:47;33.00;;;13.50;;
76228;SDS011;65021;53.174;18.160;2024-03-08T05:09:14;47.50;;;19.30;;
76228;SDS011;65021;53.174;18.160;2024-03-08T05:11:42;47.90;;;19.30;;
76228;SDS011;65021;53.174;18.160;2024-03-08T05:14:10;42.90;;;17.60;;
76228;SDS011;65021;53.174;18.160;2024-03-08T05:16:42;47.30;;;19.60;;
76228;SDS011;65021;53.174;18.160;2024-03-08T05:19:10;43.90;;;18.40;;
76228;SDS011;65021;53.174;18.160;2024-03-08T05:21:36;33.90;;;13.20;;
76228;SDS011;65021;53.174;18.160;2024-03-08T05:24:03;44.00;;;18.70;;
76228;SDS011;65021;53.174;18.160;2024-03-08T05:26:31;33.50;;;13.20;;
76228;SDS011;65021;53.174;18.160;2024-03-08T05:28:59;46.70;;;19.10;;
76228;SDS011;65021;53.174;18.160;2024-03-08T05:31:26;35.20;;;14.10;;
76228;SDS011;65021;53.174;18.160;2024-03-08T05:33:54;48.80;;;19.10;;
76228;SDS011;65021;53.174;18.160;2024-03-08T05:36:21;90.80;;;24.10;;
76228;SDS011;65021;53.174;18.160;2024-03-08T05:38:48;45.70;;;18.80;;
76228;SDS011;65021;53.174;18.160;2024-03-08T05:41:16;48.20;;;20.30;;
76228;SDS011;65021;53.174;18.160;2024-03-08T05:43:44;37.40;;;14.80;;
76228;SDS011;65021;53.174;18.160;2024-03-08T05:46:11;29.90;;;10.50;;
76228;SDS011;65021;53.174;18.160;2024-03-08T05:48:42;38.30;;;14.40;;
76228;SDS011;65021;53.174;18.160;2024-03-08T05:51:09;38.40;;;16.70;;
76228;SDS011;65021;53.174;18.160;2024-03-08T05:53:36;46.70;;;16.70;;
76228;SDS011;65021;53.174;18.160;2024-03-08T05:56:02;39.90;;;15.10;;
76228;SDS011;65021;53.174;18.160;2024-03-08T05:58:29;47.50;;;18.20;;
76228;SDS011;65021;53.174;18.160;2024-03-08T06:00:59;48.80;;;18.00;;
76228;SDS011;65021;53.174;18.160;2024-03-08T06:03:25;32.50;;;14.00;;
76228;SDS011;65021;53.174;18.160;2024-03-08T06:05:52;39.70;;;17.00;;
76228;SDS011;65021;53.174;18.160;2024-03-08T06:08:19;39.40;;;14.80;;
76228;SDS011;65021;53.174;18.160;2024-03-08T06:10:46;41.80;;;16.20;;
76228;SDS011;65021;53.174;18.160;2024-03-08T06:13:15;34.60;;;15.70;;
76228;SDS011;65021;53.174;18.160;2024-03-08T06:15:41;58.80;;;22.10;;
76228;SDS011;65021;53.174;18.160;2024-03-08T06:18:09;41.20;;;16.90;;
76228;SDS011;65021;53.174;18.160;2024-03-08T06:23:05;36.40;;;15.20;;
76228;SDS011;65021;53.174;18.160;2024-03-08T06:25:31;35.60;;;16.90;;
76228;SDS011;65021;53.174;18.160;2024-03-08T06:27:58;44.30;;;16.60;;
76228;SDS011;65021;53.174;18.160;2024-03-08T06:30:25;36.80;;;17.20;;
76228;SDS011;65021;53.174;18.160;2024-03-08T06:32:51;41.10;;;17.40;;
76228;SDS011;65021;53.174;18.160;2024-03-08T06:35:18;40.20;;;16.00;;
76228;SDS011;65021;53.174;18.160;2024-03-08T06:37:46;48.80;;;18.10;;
76228;SDS011;65021;53.174;18.160;2024-03-08T06:40:13;34.00;;;14.90;;
76228;SDS011;65021;53.174;18.160;2024-03-08T06:42:41;41.80;;;17.20;;
76228;SDS011;65021;53.174;18.160;2024-03-08T06:45:09;38.90;;;15.80;;
76228;SDS011;65021;53.174;18.160;2024-03-08T06:47:36;48.00;;;17.90;;
76228;SDS011;65021;53.174;18.160;2024-03-08T06:50:03;31.10;;;13.50;;
76228;SDS011;65021;53.174;18.160;2024-03-08T06:52:30;43.10;;;18.90;;
76228;SDS011;65021;53.174;18.160;2024-03-08T06:54:57;48.60;;;19.80;;
76228;SDS011;65021;53.174;18.160;2024-03-08T06:57:24;52.00;;;19.90;;
76228;SDS011;65021;53.174;18.160;2024-03-08T06:59:50;44.60;;;17.70;;
76228;SDS011;65021;53.174;18.160;2024-03-08T07:02:18;36.90;;;16.20;;
76228;SDS011;65021;53.174;18.160;2024-03-08T07:04:45;31.40;;;13.50;;
76228;SDS011;65021;53.174;18.160;2024-03-08T07:07:11;34.50;;;17.50;;
76228;SDS011;65021;53.174;18.160;2024-03-08T07:09:38;50.60;;;17.20;;
76228;SDS011;65021;53.174;18.160;2024-03-08T07:12:05;37.00;;;16.70;;
76228;SDS011;65021;53.174;18.160;2024-03-08T07:14:33;37.20;;;17.90;;
76228;SDS011;65021;53.174;18.160;2024-03-08T07:17:00;41.30;;;18.60;;
76228;SDS011;65021;53.174;18.160;2024-03-08T07:19:27;38.50;;;17.30;;
76228;SDS011;65021;53.174;18.160;2024-03-08T07:21:53;38.80;;;15.50;;
76228;SDS011;65021;53.174;18.160;2024-03-08T07:24:21;36.50;;;15.70;;
76228;SDS011;65021;53.174;18.160;2024-03-08T07:27:04;43.10;;;18.60;;
76228;SDS011;65021;53.174;18.160;2024-03-08T07:29:32;39.20;;;17.20;;
76228;SDS011;65021;53.174;18.160;2024-03-08T07:32:00;39.90;;;18.60;;
76228;SDS011;65021;53.174;18.160;2024-03-08T07:34:27;34.00;;;15.20;;
76228;SDS011;65021;53.174;18.160;2024-03-08T07:36:54;38.30;;;16.20;;
76228;SDS011;65021;53.174;18.160;2024-03-08T07:39:22;37.90;;;17.00;;
76228;SDS011;65021;53.174;18.160;2024-03-08T07:41:50;28.80;;;12.90;;
76228;SDS011;65021;53.174;18.160;2024-03-08T07:44:18;38.30;;;15.50;;
76228;SDS011;65021;53.174;18.160;2024-03-08T07:46:45;46.00;;;18.30;;
76228;SDS011;65021;53.174;18.160;2024-03-08T07:49:12;35.30;;;16.50;;
76228;SDS011;65021;53.174;18.160;2024-03-08T07:51:38;35.00;;;15.90;;
76228;SDS011;65021;53.174;18.160;2024-03-08T07:54:05;30.30;;;15.60;;
76228;SDS011;65021;53.174;18.160;2024-03-08T07:56:34;34.60;;;16.00;;
76228;SDS011;65021;53.174;18.160;2024-03-08T07:59:02;47.00;;;17.80;;
76228;SDS011;65021;53.174;18.160;2024-03-08T08:01:33;37.30;;;15.50;;
76228;SDS011;65021;53.174;18.160;2024-03-08T08:04:00;36.30;;;15.40;;
76228;SDS011;65021;53.174;18.160;2024-03-08T08:06:29;38.30;;;17.10;;
76228;SDS011;65021;53.174;18.160;2024-03-08T08:08:59;41.50;;;17.30;;
76228;SDS011;65021;53.174;18.160;2024-03-08T08:11:27;38.10;;;17.80;;
76228;SDS011;65021;53.174;18.160;2024-03-08T08:13:55;25.90;;;11.50;;
76228;SDS011;65021;53.174;18.160;2024-03-08T08:16:25;35.70;;;15.30;;
76228;SDS011;65021;53.174;18.160;2024-03-08T08:18:52;30.30;;;12.60;;
76228;SDS011;65021;53.174;18.160;2024-03-08T08:21:19;37.30;;;17.20;;
76228;SDS011;65021;53.174;18.160;2024-03-08T08:23:45;30.20;;;14.10;;
76228;SDS011;65021;53.174;18.160;2024-03-08T08:26:12;37.40;;;17.90;;
76228;SDS011;65021;53.174;18.160;2024-03-08T08:28:39;36.00;;;17.10;;
76228;SDS011;65021;53.174;18.160;2024-03-08T08:31:07;38.80;;;18.20;;
76228;SDS011;65021;53.174;18.160;2024-03-08T08:33:34;39.20;;;17.00;;
76228;SDS011;65021;53.174;18.160;2024-03-08T08:36:01;35.30;;;16.80;;
76228;SDS011;65021;53.174;18.160;2024-03-08T08:38:30;36.20;;;17.70;;
76228;SDS011;65021;53.174;18.160;2024-03-08T08:40:56;37.20;;;18.30;;
76228;SDS011;65021;53.174;18.160;2024-03-08T08:43:23;35.20;;;17.40;;
76228;SDS011;65021;53.174;18.160;2024-03-08T08:45:51;34.70;;;16.90;;
76228;SDS011;65021;53.174;18.160;2024-03-08T08:48:20;33.00;;;16.10;;
76228;SDS011;65021;53.174;18.160;2024-03-08T08:50:47;33.10;;;14.90;;
76228;SDS011;65021;53.174;18.160;2024-03-08T08:53:14;30.20;;;14.00;;
76228;SDS011;65021;53.174;18.160;2024-03-08T08:55:41;26.00;;;11.50;;
76228;SDS011;65021;53.174;18.160;2024-03-08T08:58:07;34.20;;;16.60;;
76228;SDS011;65021;53.174;18.160;2024-03-08T09:00:34;34.40;;;15.90;;
76228;SDS011;65021;53.174;18.160;2024-03-08T09:03:01;34.50;;;15.90;;
76228;SDS011;65021;53.174;18.160;2024-03-08T09:05:28;28.30;;;13.50;;
76228;SDS011;65021;53.174;18.160;2024-03-08T09:07:55;34.70;;;17.00;;
76228;SDS011;65021;53.174;18.160;2024-03-08T09:10:22;29.90;;;14.30;;
76228;SDS011;65021;53.174;18.160;2024-03-08T09:12:48;32.10;;;16.60;;
76228;SDS011;65021;53.174;18.160;2024-03-08T09:15:15;30.40;;;15.30;;
76228;SDS011;65021;53.174;18.160;2024-03-08T09:17:46;25.00;;;12.30;;
76228;SDS011;65021;53.174;18.160;2024-03-08T09:20:14;23.90;;;10.20;;
76228;SDS011;65021;53.174;18.160;2024-03-08T09:22:44;33.40;;;16.40;;
76228;SDS011;65021;53.174;18.160;2024-03-08T09:25:12;28.90;;;13.40;;
76228;SDS011;65021;53.174;18.160;2024-03-08T09:27:38;25.50;;;13.40;;
76228;SDS011;65021;53.174;18.160;2024-03-08T09:30:06;30.30;;;15.00;;
76228;SDS011;65021;53.174;18.160;2024-03-08T09:32:33;23.30;;;10.30;;
76228;SDS011;65021;53.174;18.160;2024-03-08T09:35:00;23.50;;;12.50;;
76228;SDS011;65021;53.174;18.160;2024-03-08T09:37:27;21.70;;;11.10;;
76228;SDS011;65021;53.174;18.160;2024-03-08T09:39:54;30.20;;;13.90;;
76228;SDS011;65021;53.174;18.160;2024-03-08T09:42:20;26.10;;;13.00;;
76228;SDS011;65021;53.174;18.160;2024-03-08T09:44:47;29.20;;;13.30;;
76228;SDS011;65021;53.174;18.160;2024-03-08T09:47:14;30.60;;;14.00;;
76228;SDS011;65021;53.174;18.160;2024-03-08T09:49:41;25.60;;;12.50;;
76228;SDS011;65021;53.174;18.160;2024-03-08T09:52:09;28.40;;;13.20;;
76228;SDS011;65021;53.174;18.160;2024-03-08T09:54:38;24.00;;;13.80;;
76228;SDS011;65021;53.174;18.160;2024-03-08T09:57:06;27.80;;;12.90;;
76228;SDS011;65021;53.174;18.160;2024-03-08T09:59:35;27.20;;;13.80;;
76228;SDS011;65021;53.174;18.160;2024-03-08T10:02:04;28.60;;;14.10;;
76228;SDS011;65021;53.174;18.160;2024-03-08T10:04:31;27.30;;;13.60;;
76228;SDS011;65021;53.174;18.160;2024-03-08T10:07:00;27.20;;;14.10;;
76228;SDS011;65021;53.174;18.160;2024-03-08T10:09:28;21.50;;;10.90;;
76228;SDS011;65021;53.174;18.160;2024-03-08T10:11:56;27.10;;;12.80;;
76228;SDS011;65021;53.174;18.160;2024-03-08T10:14:26;23.00;;;12.00;;
76228;SDS011;65021;53.174;18.160;2024-03-08T10:16:53;22.40;;;11.30;;
76228;SDS011;65021;53.174;18.160;2024-03-08T10:19:20;24.20;;;12.90;;
76228;SDS011;65021;53.174;18.160;2024-03-08T10:21:50;21.70;;;9.60;;
76228;SDS011;65021;53.174;18.160;2024-03-08T10:24:22;24.50;;;11.80;;
76228;SDS011;65021;53.174;18.160;2024-03-08T10:26:53;26.80;;;12.00;;
76228;SDS011;65021;53.174;18.160;2024-03-08T10:29:24;23.40;;;11.00;;
76228;SDS011;65021;53.174;18.160;2024-03-08T10:31:51;22.40;;;11.60;;
76228;SDS011;65021;53.174;18.160;2024-03-08T10:34:18;23.20;;;11.40;;
76228;SDS011;65021;53.174;18.160;2024-03-08T10:36:46;19.60;;;9.40;;
76228;SDS011;65021;53.174;18.160;2024-03-08T10:39:21;23.10;;;10.70;;
76228;SDS011;65021;53.174;18.160;2024-03-08T10:41:53;20.40;;;10.70;;
76228;SDS011;65021;53.174;18.160;2024-03-08T10:44:32;15.50;;;7.30;;
76228;SDS011;65021;53.174;18.160;2024-03-08T10:47:15;15.50;;;7.90;;
76228;SDS011;65021;53.174;18.160;2024-03-08T10:54:48;12.90;;;6.80;;
76228;SDS011;65021;53.174;18.160;2024-03-08T10:57:17;18.40;;;8.90;;
76228;SDS011;65021;53.174;18.160;2024-03-08T10:59:50;18.60;;;9.20;;
76228;SDS011;65021;53.174;18.160;2024-03-08T11:02:18;18.50;;;8.90;;
76228;SDS011;65021;53.174;18.160;2024-03-08T11:04:49;16.50;;;7.20;;
76228;SDS011;65021;53.174;18.160;2024-03-08T11:07:17;26.90;;;14.40;;
76228;SDS011;65021;53.174;18.160;2024-03-08T11:09:48;18.50;;;9.60;;
76228;SDS011;65021;53.174;18.160;2024-03-08T11:12:19;19.40;;;9.80;;
76228;SDS011;65021;53.174;18.160;2024-03-08T11:14:56;14.60;;;7.50;;
76228;SDS011;65021;53.174;18.160;2024-03-08T11:22:28;14.10;;;5.40;;
76228;SDS011;65021;53.174;18.160;2024-03-08T11:25:04;16.20;;;8.90;;
76228;SDS011;65021;53.174;18.160;2024-03-08T11:27:38;17.00;;;8.40;;
76228;SDS011;65021;53.174;18.160;2024-03-08T11:30:06;18.20;;;8.40;;
76228;SDS011;65021;53.174;18.160;2024-03-08T11:32:37;18.90;;;8.20;;
76228;SDS011;65021;53.174;18.160;2024-03-08T11:35:08;19.10;;;8.90;;
76228;SDS011;65021;53.174;18.160;2024-03-08T11:37:45;19.60;;;9.20;;
76228;SDS011;65021;53.174;18.160;2024-03-08T11:40:12;18.90;;;9.40;;
76228;SDS011;65021;53.174;18.160;2024-03-08T11:42:45;16.20;;;7.80;;
76228;SDS011;65021;53.174;18.160;2024-03-08T11:45:15;17.90;;;8.20;;
76228;SDS011;65021;53.174;18.160;2024-03-08T11:47:43;22.00;;;10.90;;
76228;SDS011;65021;53.174;18.160;2024-03-08T11:50:13;20.90;;;10.30;;
76228;SDS011;65021;53.174;18.160;2024-03-08T11:52:41;20.80;;;10.70;;
76228;SDS011;65021;53.174;18.160;2024-03-08T11:55:08;17.70;;;8.50;;
76228;SDS011;65021;53.174;18.160;2024-03-08T11:57:35;16.40;;;7.40;;
76228;SDS011;65021;53.174;18.160;2024-03-08T12:00:02;18.10;;;7.20;;
76228;SDS011;65021;53.174;18.160;2024-03-08T12:02:33;16.80;;;9.20;;
76228;SDS011;65021;53.174;18.160;2024-03-08T12:05:08;18.80;;;10.00;;
76228;SDS011;65021;53.174;18.160;2024-03-08T12:07:42;19.90;;;10.30;;
76228;SDS011;65021;53.174;18.160;2024-03-08T12:12:48;17.40;;;8.30;;
76228;SDS011;65021;53.174;18.160;2024-03-08T12:17:49;19.70;;;9.70;;
76228;SDS011;65021;53.174;18.160;2024-03-08T12:20:20;19.10;;;9.90;;
76228;SDS011;65021;53.174;18.160;2024-03-08T12:22:48;20.70;;;10.80;;
76228;SDS011;65021;53.174;18.160;2024-03-08T12:25:16;19.30;;;8.70;;
76228;SDS011;65021;53.174;18.160;2024-03-08T12:27:43;22.20;;;11.80;;
76228;SDS011;65021;53.174;18.160;2024-03-08T12:30:17;19.10;;;9.80;;
76228;SDS011;65021;53.174;18.160;2024-03-08T12:32:58;17.10;;;8.40;;
76228;SDS011;65021;53.174;18.160;2024-03-08T12:35:27;20.30;;;9.60;;
76228;SDS011;65021;53.174;18.160;2024-03-08T12:37:58;19.50;;;10.10;;
76228;SDS011;65021;53.174;18.160;2024-03-08T12:40:29;19.30;;;9.90;;
76228;SDS011;65021;53.174;18.160;2024-03-08T12:43:01;21.30;;;10.70;;
76228;SDS011;65021;53.174;18.160;2024-03-08T12:45:29;19.20;;;10.20;;
76228;SDS011;65021;53.174;18.160;2024-03-08T12:47:56;21.40;;;10.60;;
76228;SDS011;65021;53.174;18.160;2024-03-08T12:50:23;22.50;;;9.70;;
76228;SDS011;65021;53.174;18.160;2024-03-08T12:52:51;20.50;;;9.80;;
76228;SDS011;65021;53.174;18.160;2024-03-08T12:55:20;18.60;;;10.40;;
76228;SDS011;65021;53.174;18.160;2024-03-08T12:57:47;19.50;;;9.00;;
76228;SDS011;65021;53.174;18.160;2024-03-08T13:00:15;18.30;;;9.30;;
76228;SDS011;65021;53.174;18.160;2024-03-08T13:02:49;17.00;;;8.70;;
76228;SDS011;65021;53.174;18.160;2024-03-08T13:05:17;20.60;;;9.80;;
76228;SDS011;65021;53.174;18.160;2024-03-08T13:07:44;20.00;;;9.40;;
76228;SDS011;65021;53.174;18.160;2024-03-08T13:10:14;20.40;;;8.60;;
76228;SDS011;65021;53.174;18.160;2024-03-08T13:12:42;18.00;;;8.60;;
76228;SDS011;65021;53.174;18.160;2024-03-08T13:15:09;20.00;;;9.30;;
76228;SDS011;65021;53.174;18.160;2024-03-08T13:17:41;19.10;;;9.40;;
76228;SDS011;65021;53.174;18.160;2024-03-08T13:20:08;18.10;;;8.80;;
76228;SDS011;65021;53.174;18.160;2024-03-08T13:22:42;17.70;;;8.80;;
76228;SDS011;65021;53.174;18.160;2024-03-08T13:25:09;18.20;;;9.60;;
76228;SDS011;65021;53.174;18.160;2024-03-08T13:27:42;20.30;;;9.70;;
76228;SDS011;65021;53.174;18.160;2024-03-08T13:30:10;20.70;;;9.00;;
76228;SDS011;65021;53.174;18.160;2024-03-08T13:32:39;18.00;;;9.60;;
76228;SDS011;65021;53.174;18.160;2024-03-08T13:35:12;18.20;;;9.30;;
76228;SDS011;65021;53.174;18.160;2024-03-08T13:37:40;20.70;;;9.50;;
76228;SDS011;65021;53.174;18.160;2024-03-08T13:40:07;19.80;;;10.70;;
76228;SDS011;65021;53.174;18.160;2024-03-08T13:42:40;16.90;;;7.90;;
76228;SDS011;65021;53.174;18.160;2024-03-08T13:45:10;15.60;;;6.80;;
76228;SDS011;65021;53.174;18.160;2024-03-08T13:47:38;17.50;;;8.90;;
76228;SDS011;65021;53.174;18.160;2024-03-08T13:50:10;19.70;;;8.30;;
76228;SDS011;65021;53.174;18.160;2024-03-08T13:52:47;18.10;;;9.20;;
76228;SDS011;65021;53.174;18.160;2024-03-08T13:55:20;16.60;;;9.00;;
76228;SDS011;65021;53.174;18.160;2024-03-08T13:57:48;19.30;;;9.40;;
76228;SDS011;65021;53.174;18.160;2024-03-08T14:00:15;17.00;;;8.50;;
76228;SDS011;65021;53.174;18.160;2024-03-08T14:02:42;17.60;;;8.40;;
76228;SDS011;65021;53.174;18.160;2024-03-08T14:05:09;14.80;;;7.20;;
76228;SDS011;65021;53.174;18.160;2024-03-08T14:07:38;16.60;;;8.20;;
76228;SDS011;65021;53.174;18.160;2024-03-08T14:10:05;13.50;;;5.70;;
76228;SDS011;65021;53.174;18.160;2024-03-08T14:12:33;10.50;;;4.10;;
76228;SDS011;65021;53.174;18.160;2024-03-08T14:15:01;15.10;;;7.90;;
76228;SDS011;65021;53.174;18.160;2024-03-08T14:17:30;20.50;;;8.10;;
76228;SDS011;65021;53.174;18.160;2024-03-08T14:19:57;15.30;;;7.60;;
76228;SDS011;65021;53.174;18.160;2024-03-08T14:22:25;17.10;;;7.60;;
76228;SDS011;65021;53.174;18.160;2024-03-08T14:24:51;14.50;;;7.60;;
76228;SDS011;65021;53.174;18.160;2024-03-08T14:27:18;17.50;;;8.40;;
76228;SDS011;65021;53.174;18.160;2024-03-08T14:29:45;14.40;;;7.40;;
76228;SDS011;65021;53.174;18.160;2024-03-08T14:32:12;14.00;;;7.20;;
76228;SDS011;65021;53.174;18.160;2024-03-08T14:34:39;13.90;;;7.20;;
76228;SDS011;65021;53.174;18.160;2024-03-08T14:37:05;14.10;;;7.40;;